sensor_id;sensor_type;location;lat;lon;timestamp;noise_LAeq;noise_LA_min;noise_LA_max;noise_LA01;noise_LA95
77133;Laerm;26708;50.304;19.028;2023-05-24T00:00:51;45.01;42.13;52.49;;
77133;Laerm;26708;50.304;19.028;2023-05-24T00:02:56;44.26;41.87;47.36;;
77133;Laerm;26708;50.304;19.028;2023-05-24T00:05:00;49.65;42.35;66.38;;
77133;Laerm;26708;50.304;19.028;2023-05-24T00:07:06;44.39;42.27;46.11;;
77133;Laerm;26708;50.304;19.028;2023-05-24T00:09:11;45.28;42.87;50.64;;
77133;Laerm;26708;50.304;19.028;2023-05-24T00:11:19;44.56;42.40;46.44;;
77133;Laerm;26708;50.304;19.028;2023-05-24T00:13:24;44.54;42.34;49.37;;
77133;Laerm;26708;50.304;19.028;2023-05-24T00:15:29;44.51;42.20;47.03;;
77133;Laerm;26708;50.304;19.028;2023-05-24T00:17:34;48.58;42.92;56.34;;
77133;Laerm;26708;50.304;19.028;2023-05-24T00:19:42;44.53;42.46;46.87;;
77133;Laerm;26708;50.304;19.028;2023-05-24T00:21:47;44.54;41.65;50.47;;
77133;Laerm;26708;50.304;19.028;2023-05-24T00:23:52;44.19;42.09;46.18;;
77133;Laerm;26708;50.304;19.028;2023-05-24T00:25:57;44.41;42.28;49.01;;
77133;Laerm;26708;50.304;19.028;2023-05-24T00:28:04;44.37;42.36;46.71;;
77133;Laerm;26708;50.304;19.028;2023-05-24T00:30:10;45.54;43.18;52.87;;
77133;Laerm;26708;50.304;19.028;2023-05-24T00:32:15;45.13;42.31;52.80;;
77133;Laerm;26708;50.304;19.028;2023-05-24T00:34:20;48.19;42.61;55.73;;
77133;Laerm;26708;50.304;19.028;2023-05-24T00:36:24;44.62;41.92;48.63;;
77133;Laerm;26708;50.304;19.028;2023-05-24T00:38:30;44.38;42.31;49.21;;
77133;Laerm;26708;50.304;19.028;2023-05-24T00:40:34;45.12;42.74;54.31;;
77133;Laerm;26708;50.304;19.028;2023-05-24T00:42:40;44.59;42.73;46.87;;
77133;Laerm;26708;50.304;19.028;2023-05-24T00:44:48;44.75;42.15;47.46;;
77133;Laerm;26708;50.304;19.028;2023-05-24T00:46:52;45.50;42.42;52.39;;
77133;Laerm;26708;50.304;19.028;2023-05-24T00:48:59;45.14;42.75;48.17;;
77133;Laerm;26708;50.304;19.028;2023-05-24T00:51:06;45.02;42.78;50.13;;
77133;Laerm;26708;50.304;19.028;2023-05-24T00:53:11;44.94;43.01;47.27;;
77133;Laerm;26708;50.304;19.028;2023-05-24T00:55:16;45.02;42.68;48.25;;
77133;Laerm;26708;50.304;19.028;2023-05-24T00:57:22;44.72;42.75;46.54;;
77133;Laerm;26708;50.304;19.028;2023-05-24T00:59:28;44.80;42.96;48.16;;
77133;Laerm;26708;50.304;19.028;2023-05-24T01:01:36;44.64;42.22;49.03;;
77133;Laerm;26708;50.304;19.028;2023-05-24T01:03:43;44.87;42.83;46.63;;
77133;Laerm;26708;50.304;19.028;2023-05-24T01:05:47;44.93;42.86;46.76;;
77133;Laerm;26708;50.304;19.028;2023-05-24T01:08:08;44.87;42.32;48.80;;
77133;Laerm;26708;50.304;19.028;2023-05-24T01:10:29;44.51;42.32;47.15;;
77133;Laerm;26708;50.304;19.028;2023-05-24T01:12:55;50.09;43.01;68.09;;
77133;Laerm;26708;50.304;19.028;2023-05-24T01:15:15;44.92;42.69;47.11;;
77133;Laerm;26708;50.304;19.028;2023-05-24T01:17:36;45.07;42.64;48.19;;
77133;Laerm;26708;50.304;19.028;2023-05-24T01:19:55;45.19;42.73;52.54;;
77133;Laerm;26708;50.304;19.028;2023-05-24T01:22:23;45.25;42.68;50.08;;
77133;Laerm;26708;50.304;19.028;2023-05-24T01:24:52;45.94;43.64;51.97;;
77133;Laerm;26708;50.304;19.028;2023-05-24T01:27:07;45.53;42.63;50.78;;
77133;Laerm;26708;50.304;19.028;2023-05-24T01:29:30;45.05;42.22;49.75;;
77133;Laerm;26708;50.304;19.028;2023-05-24T01:31:50;50.26;42.62;67.68;;
77133;Laerm;26708;50.304;19.028;2023-05-24T01:34:11;44.81;42.74;48.35;;
77133;Laerm;26708;50.304;19.028;2023-05-24T01:36:30;46.01;42.47;51.88;;
77133;Laerm;26708;50.304;19.028;2023-05-24T01:38:51;51.96;42.95;71.56;;
77133;Laerm;26708;50.304;19.028;2023-05-24T01:41:28;45.54;42.46;54.02;;
77133;Laerm;26708;50.304;19.028;2023-05-24T01:44:12;45.04;43.07;47.91;;
77133;Laerm;26708;50.304;19.028;2023-05-24T01:46:31;46.08;43.72;51.64;;
77133;Laerm;26708;50.304;19.028;2023-05-24T01:48:55;46.04;43.30;52.79;;
77133;Laerm;26708;50.304;19.028;2023-05-24T01:51:07;45.75;42.78;49.20;;
77133;Laerm;26708;50.304;19.028;2023-05-24T01:53:18;45.88;43.01;50.77;;
77133;Laerm;26708;50.304;19.028;2023-05-24T01:55:27;45.78;43.10;53.71;;
77133;Laerm;26708;50.304;19.028;2023-05-24T01:57:35;47.75;43.46;57.48;;
77133;Laerm;26708;50.304;19.028;2023-05-24T01:59:46;45.83;43.35;51.28;;
77133;Laerm;26708;50.304;19.028;2023-05-24T02:01:51;45.37;42.77;52.65;;
77133;Laerm;26708;50.304;19.028;2023-05-24T02:03:58;45.74;42.56;52.31;;
77133;Laerm;26708;50.304;19.028;2023-05-24T02:06:03;45.34;43.28;51.67;;
77133;Laerm;26708;50.304;19.028;2023-05-24T02:08:09;45.05;42.56;47.58;;
77133;Laerm;26708;50.304;19.028;2023-05-24T02:10:14;48.21;42.95;61.88;;
77133;Laerm;26708;50.304;19.028;2023-05-24T02:12:19;45.71;43.15;56.90;;
77133;Laerm;26708;50.304;19.028;2023-05-24T02:14:24;45.20;43.02;47.85;;
77133;Laerm;26708;50.304;19.028;2023-05-24T02:16:32;49.74;43.38;65.59;;
77133;Laerm;26708;50.304;19.028;2023-05-24T02:18:43;50.40;43.71;66.97;;
77133;Laerm;26708;50.304;19.028;2023-05-24T02:20:49;53.39;43.08;74.75;;
77133;Laerm;26708;50.304;19.028;2023-05-24T02:22:54;44.97;42.35;53.28;;
77133;Laerm;26708;50.304;19.028;2023-05-24T02:25:01;51.78;42.71;68.17;;
77133;Laerm;26708;50.304;19.028;2023-05-24T02:27:05;52.91;43.43;71.72;;
77133;Laerm;26708;50.304;19.028;2023-05-24T02:29:11;45.52;42.98;51.86;;
77133;Laerm;26708;50.304;19.028;2023-05-24T02:31:15;45.55;43.01;48.34;;
77133;Laerm;26708;50.304;19.028;2023-05-24T02:33:23;46.18;43.31;61.16;;
77133;Laerm;26708;50.304;19.028;2023-05-24T02:35:31;45.72;43.11;50.03;;
77133;Laerm;26708;50.304;19.028;2023-05-24T02:37:35;46.03;43.47;49.42;;
77133;Laerm;26708;50.304;19.028;2023-05-24T02:39:40;50.54;43.36;66.64;;
77133;Laerm;26708;50.304;19.028;2023-05-24T02:41:46;45.69;42.82;52.28;;
77133;Laerm;26708;50.304;19.028;2023-05-24T02:43:50;50.25;43.27;65.09;;
77133;Laerm;26708;50.304;19.028;2023-05-24T02:45:54;46.41;43.09;54.27;;
77133;Laerm;26708;50.304;19.028;2023-05-24T02:48:14;46.27;43.73;51.85;;
77133;Laerm;26708;50.304;19.028;2023-05-24T02:50:36;49.68;42.97;65.83;;
77133;Laerm;26708;50.304;19.028;2023-05-24T02:52:56;45.86;42.81;53.66;;
77133;Laerm;26708;50.304;19.028;2023-05-24T02:55:16;46.87;43.15;64.31;;
77133;Laerm;26708;50.304;19.028;2023-05-24T02:57:35;46.43;43.21;58.79;;
77133;Laerm;26708;50.304;19.028;2023-05-24T02:59:55;46.65;43.19;57.30;;
77133;Laerm;26708;50.304;19.028;2023-05-24T03:02:15;46.57;42.71;53.99;;
77133;Laerm;26708;50.304;19.028;2023-05-24T03:04:35;46.08;42.86;55.20;;
77133;Laerm;26708;50.304;19.028;2023-05-24T03:06:58;49.26;42.78;64.99;;
77133;Laerm;26708;50.304;19.028;2023-05-24T03:09:18;45.70;43.29;53.40;;
77133;Laerm;26708;50.304;19.028;2023-05-24T03:11:38;46.33;43.77;52.31;;
77133;Laerm;26708;50.304;19.028;2023-05-24T03:13:58;46.19;43.47;51.95;;
77133;Laerm;26708;50.304;19.028;2023-05-24T03:16:18;50.08;43.33;67.27;;
77133;Laerm;26708;50.304;19.028;2023-05-24T03:18:38;46.18;43.52;54.17;;
77133;Laerm;26708;50.304;19.028;2023-05-24T03:20:57;52.29;43.49;69.29;;
77133;Laerm;26708;50.304;19.028;2023-05-24T03:23:19;52.77;43.21;70.79;;
77133;Laerm;26708;50.304;19.028;2023-05-24T03:25:39;46.42;43.76;53.26;;
77133;Laerm;26708;50.304;19.028;2023-05-24T03:27:59;49.79;43.50;64.96;;
77133;Laerm;26708;50.304;19.028;2023-05-24T03:30:19;51.97;43.47;69.02;;
77133;Laerm;26708;50.304;19.028;2023-05-24T03:32:43;46.73;43.92;52.18;;
77133;Laerm;26708;50.304;19.028;2023-05-24T03:35:04;46.37;43.44;53.58;;
77133;Laerm;26708;50.304;19.028;2023-05-24T03:37:09;50.88;43.48;65.01;;
77133;Laerm;26708;50.304;19.028;2023-05-24T03:39:18;50.60;43.61;66.63;;
77133;Laerm;26708;50.304;19.028;2023-05-24T03:41:34;50.67;43.60;65.42;;
77133;Laerm;26708;50.304;19.028;2023-05-24T03:43:39;47.49;43.59;58.19;;
77133;Laerm;26708;50.304;19.028;2023-05-24T03:45:49;52.85;44.52;70.55;;
77133;Laerm;26708;50.304;19.028;2023-05-24T03:47:54;48.35;44.26;56.96;;
77133;Laerm;26708;50.304;19.028;2023-05-24T03:50:00;49.71;43.75;63.51;;
77133;Laerm;26708;50.304;19.028;2023-05-24T03:52:04;46.74;43.51;52.14;;
77133;Laerm;26708;50.304;19.028;2023-05-24T03:54:09;52.45;43.38;67.65;;
77133;Laerm;26708;50.304;19.028;2023-05-24T03:56:20;45.97;43.14;50.90;;
77133;Laerm;26708;50.304;19.028;2023-05-24T03:58:24;47.05;43.82;51.61;;
77133;Laerm;26708;50.304;19.028;2023-05-24T04:00:29;50.71;44.03;65.63;;
77133;Laerm;26708;50.304;19.028;2023-05-24T04:02:48;47.70;43.33;60.01;;
77133;Laerm;26708;50.304;19.028;2023-05-24T04:05:12;53.20;43.67;69.41;;
77133;Laerm;26708;50.304;19.028;2023-05-24T04:07:32;55.19;44.28;70.61;;
77133;Laerm;26708;50.304;19.028;2023-05-24T04:09:38;52.99;44.72;68.84;;
77133;Laerm;26708;50.304;19.028;2023-05-24T04:11:45;53.52;44.61;69.44;;
77133;Laerm;26708;50.304;19.028;2023-05-24T04:13:50;54.37;44.10;71.96;;
77133;Laerm;26708;50.304;19.028;2023-05-24T04:15:57;52.70;44.75;65.84;;
77133;Laerm;26708;50.304;19.028;2023-05-24T04:18:01;54.34;44.15;70.91;;
77133;Laerm;26708;50.304;19.028;2023-05-24T04:20:07;53.81;44.58;67.17;;
77133;Laerm;26708;50.304;19.028;2023-05-24T04:22:13;54.87;44.71;67.72;;
77133;Laerm;26708;50.304;19.028;2023-05-24T04:24:19;52.72;44.14;67.73;;
77133;Laerm;26708;50.304;19.028;2023-05-24T04:26:23;56.69;44.36;68.82;;
77133;Laerm;26708;50.304;19.028;2023-05-24T04:28:31;51.84;44.07;66.02;;
77133;Laerm;26708;50.304;19.028;2023-05-24T04:30:36;57.51;44.80;68.32;;
77133;Laerm;26708;50.304;19.028;2023-05-24T04:32:42;57.08;47.92;70.94;;
77133;Laerm;26708;50.304;19.028;2023-05-24T04:34:49;57.12;48.45;72.40;;
77133;Laerm;26708;50.304;19.028;2023-05-24T04:36:53;56.19;49.66;69.51;;
77133;Laerm;26708;50.304;19.028;2023-05-24T04:39:00;58.20;51.99;71.47;;
77133;Laerm;26708;50.304;19.028;2023-05-24T04:41:06;57.11;52.07;67.76;;
77133;Laerm;26708;50.304;19.028;2023-05-24T04:43:12;58.66;52.10;67.19;;
77133;Laerm;26708;50.304;19.028;2023-05-24T04:45:20;57.46;51.05;68.87;;
77133;Laerm;26708;50.304;19.028;2023-05-24T04:47:26;58.67;51.40;69.46;;
77133;Laerm;26708;50.304;19.028;2023-05-24T04:49:30;61.57;55.62;67.06;;
77133;Laerm;26708;50.304;19.028;2023-05-24T04:51:35;60.90;52.84;69.17;;
77133;Laerm;26708;50.304;19.028;2023-05-24T04:53:41;65.44;51.81;78.85;;
77133;Laerm;26708;50.304;19.028;2023-05-24T04:55:46;63.70;57.37;73.36;;
77133;Laerm;26708;50.304;19.028;2023-05-24T04:57:50;63.20;52.53;73.72;;
77133;Laerm;26708;50.304;19.028;2023-05-24T04:59:56;56.74;50.76;67.83;;
77133;Laerm;26708;50.304;19.028;2023-05-24T05:02:18;72.90;53.51;84.38;;
77133;Laerm;26708;50.304;19.028;2023-05-24T05:04:23;65.61;51.90;91.64;;
77133;Laerm;26708;50.304;19.028;2023-05-24T05:06:28;61.83;49.76;83.18;;
77133;Laerm;26708;50.304;19.028;2023-05-24T05:08:35;64.04;51.46;76.81;;
77133;Laerm;26708;50.304;19.028;2023-05-24T05:10:39;63.56;50.62;76.27;;
77133;Laerm;26708;50.304;19.028;2023-05-24T05:12:46;54.45;49.60;66.89;;
77133;Laerm;26708;50.304;19.028;2023-05-24T05:14:50;59.08;49.25;70.84;;
77133;Laerm;26708;50.304;19.028;2023-05-24T05:16:55;56.15;47.41;72.64;;
77133;Laerm;26708;50.304;19.028;2023-05-24T05:19:04;56.88;48.32;68.71;;
77133;Laerm;26708;50.304;19.028;2023-05-24T05:21:08;55.58;46.53;68.86;;
77133;Laerm;26708;50.304;19.028;2023-05-24T05:23:13;60.45;48.07;75.92;;
77133;Laerm;26708;50.304;19.028;2023-05-24T05:25:18;61.30;47.35;78.61;;
77133;Laerm;26708;50.304;19.028;2023-05-24T05:27:23;54.44;47.45;66.36;;
77133;Laerm;26708;50.304;19.028;2023-05-24T05:29:27;53.31;45.88;61.81;;
77133;Laerm;26708;50.304;19.028;2023-05-24T05:31:32;59.42;46.98;72.57;;
77133;Laerm;26708;50.304;19.028;2023-05-24T05:33:37;64.18;49.69;77.21;;
77133;Laerm;26708;50.304;19.028;2023-05-24T05:35:44;58.61;47.25;72.21;;
77133;Laerm;26708;50.304;19.028;2023-05-24T05:38:03;57.67;45.95;69.88;;
77133;Laerm;26708;50.304;19.028;2023-05-24T05:40:23;58.15;47.95;68.78;;
77133;Laerm;26708;50.304;19.028;2023-05-24T05:42:42;58.27;50.56;68.25;;
77133;Laerm;26708;50.304;19.028;2023-05-24T05:44:48;57.56;48.97;70.60;;
77133;Laerm;26708;50.304;19.028;2023-05-24T05:46:53;57.47;48.78;68.37;;
77133;Laerm;26708;50.304;19.028;2023-05-24T05:48:57;56.76;47.06;68.70;;
77133;Laerm;26708;50.304;19.028;2023-05-24T05:51:05;57.41;47.30;70.62;;
77133;Laerm;26708;50.304;19.028;2023-05-24T05:53:10;56.50;47.00;66.07;;
77133;Laerm;26708;50.304;19.028;2023-05-24T05:55:14;58.82;47.10;70.37;;
77133;Laerm;26708;50.304;19.028;2023-05-24T05:57:20;58.44;47.27;70.82;;
77133;Laerm;26708;50.304;19.028;2023-05-24T05:59:24;57.50;46.82;70.58;;
77133;Laerm;26708;50.304;19.028;2023-05-24T06:01:28;55.63;46.98;72.26;;
77133;Laerm;26708;50.304;19.028;2023-05-24T06:03:48;58.09;48.45;72.97;;
77133;Laerm;26708;50.304;19.028;2023-05-24T06:05:53;61.08;49.44;73.10;;
77133;Laerm;26708;50.304;19.028;2023-05-24T06:08:01;58.46;47.61;69.23;;
77133;Laerm;26708;50.304;19.028;2023-05-24T06:10:07;58.52;50.13;69.34;;
77133;Laerm;26708;50.304;19.028;2023-05-24T06:12:12;57.77;47.04;68.70;;
77133;Laerm;26708;50.304;19.028;2023-05-24T06:14:16;62.64;47.10;83.40;;
77133;Laerm;26708;50.304;19.028;2023-05-24T06:16:22;56.95;49.51;67.66;;
77133;Laerm;26708;50.304;19.028;2023-05-24T06:18:28;58.50;49.18;69.34;;
77133;Laerm;26708;50.304;19.028;2023-05-24T06:20:34;55.60;47.47;69.54;;
77133;Laerm;26708;50.304;19.028;2023-05-24T06:22:39;57.75;47.20;71.11;;
77133;Laerm;26708;50.304;19.028;2023-05-24T06:24:47;62.64;49.08;72.93;;
77133;Laerm;26708;50.304;19.028;2023-05-24T06:26:52;61.82;52.37;70.81;;
77133;Laerm;26708;50.304;19.028;2023-05-24T06:28:57;62.45;50.28;71.90;;
77133;Laerm;26708;50.304;19.028;2023-05-24T06:31:03;62.89;50.57;78.92;;
77133;Laerm;26708;50.304;19.028;2023-05-24T06:33:08;60.78;51.80;71.79;;
77133;Laerm;26708;50.304;19.028;2023-05-24T06:35:12;56.59;50.09;71.50;;
77133;Laerm;26708;50.304;19.028;2023-05-24T06:37:17;58.61;49.66;70.11;;
77133;Laerm;26708;50.304;19.028;2023-05-24T06:39:25;56.21;49.62;67.70;;
77133;Laerm;26708;50.304;19.028;2023-05-24T06:41:32;56.49;49.10;67.13;;
77133;Laerm;26708;50.304;19.028;2023-05-24T06:43:37;69.83;49.09;91.82;;
77133;Laerm;26708;50.304;19.028;2023-05-24T06:45:57;57.45;48.70;69.97;;
77133;Laerm;26708;50.304;19.028;2023-05-24T06:48:16;57.67;48.64;68.74;;
77133;Laerm;26708;50.304;19.028;2023-05-24T06:50:36;57.00;45.95;69.23;;
77133;Laerm;26708;50.304;19.028;2023-05-24T06:52:42;59.48;50.60;67.13;;
77133;Laerm;26708;50.304;19.028;2023-05-24T06:54:47;63.28;50.99;77.06;;
77133;Laerm;26708;50.304;19.028;2023-05-24T06:56:55;56.20;50.52;66.70;;
77133;Laerm;26708;50.304;19.028;2023-05-24T06:59:00;57.53;46.35;69.80;;
77133;Laerm;26708;50.304;19.028;2023-05-24T07:01:05;59.77;46.92;71.08;;
77133;Laerm;26708;50.304;19.028;2023-05-24T07:03:09;56.78;47.63;72.65;;
77133;Laerm;26708;50.304;19.028;2023-05-24T07:05:14;53.52;47.39;74.85;;
77133;Laerm;26708;50.304;19.028;2023-05-24T07:07:19;58.60;47.22;68.96;;
77133;Laerm;26708;50.304;19.028;2023-05-24T07:09:24;56.54;46.86;67.76;;
77133;Laerm;26708;50.304;19.028;2023-05-24T07:11:30;58.93;47.95;69.66;;
77133;Laerm;26708;50.304;19.028;2023-05-24T07:13:38;56.89;46.00;70.27;;
77133;Laerm;26708;50.304;19.028;2023-05-24T07:15:42;59.43;47.84;71.45;;
77133;Laerm;26708;50.304;19.028;2023-05-24T07:17:48;58.32;47.98;71.81;;
77133;Laerm;26708;50.304;19.028;2023-05-24T07:19:53;55.95;46.74;67.20;;
77133;Laerm;26708;50.304;19.028;2023-05-24T07:21:57;57.08;45.67;69.03;;
77133;Laerm;26708;50.304;19.028;2023-05-24T07:24:03;56.83;45.07;73.37;;
77133;Laerm;26708;50.304;19.028;2023-05-24T07:26:08;55.81;46.38;67.11;;
77133;Laerm;26708;50.304;19.028;2023-05-24T07:28:13;57.25;46.16;71.29;;
77133;Laerm;26708;50.304;19.028;2023-05-24T07:30:23;58.83;46.27;70.17;;
77133;Laerm;26708;50.304;19.028;2023-05-24T07:32:28;55.00;45.80;65.63;;
77133;Laerm;26708;50.304;19.028;2023-05-24T07:34:34;55.85;46.32;68.52;;
77133;Laerm;26708;50.304;19.028;2023-05-24T07:36:40;55.72;46.77;68.39;;
77133;Laerm;26708;50.304;19.028;2023-05-24T07:38:45;56.27;47.09;67.90;;
77133;Laerm;26708;50.304;19.028;2023-05-24T07:40:50;54.74;46.76;66.88;;
77133;Laerm;26708;50.304;19.028;2023-05-24T07:42:55;53.91;46.68;63.94;;
77133;Laerm;26708;50.304;19.028;2023-05-24T07:45:00;57.94;46.08;78.32;;
77133;Laerm;26708;50.304;19.028;2023-05-24T07:47:07;54.53;46.94;66.36;;
77133;Laerm;26708;50.304;19.028;2023-05-24T07:49:12;57.94;46.91;68.57;;
77133;Laerm;26708;50.304;19.028;2023-05-24T07:51:16;57.79;47.12;68.40;;
77133;Laerm;26708;50.304;19.028;2023-05-24T07:53:21;56.08;47.24;74.69;;
77133;Laerm;26708;50.304;19.028;2023-05-24T07:55:27;56.55;47.13;68.93;;
77133;Laerm;26708;50.304;19.028;2023-05-24T07:57:31;58.84;47.56;70.39;;
77133;Laerm;26708;50.304;19.028;2023-05-24T07:59:36;57.87;46.75;72.15;;
77133;Laerm;26708;50.304;19.028;2023-05-24T08:01:41;56.49;46.24;67.80;;
77133;Laerm;26708;50.304;19.028;2023-05-24T08:03:48;58.50;47.00;72.14;;
77133;Laerm;26708;50.304;19.028;2023-05-24T08:05:53;60.29;46.36;76.66;;
77133;Laerm;26708;50.304;19.028;2023-05-24T08:07:58;56.97;46.00;69.79;;
77133;Laerm;26708;50.304;19.028;2023-05-24T08:10:04;55.33;46.76;69.25;;
77133;Laerm;26708;50.304;19.028;2023-05-24T08:12:09;57.96;46.91;69.58;;
77133;Laerm;26708;50.304;19.028;2023-05-24T08:14:14;57.23;46.82;71.49;;
77133;Laerm;26708;50.304;19.028;2023-05-24T08:16:18;58.28;46.68;68.32;;
77133;Laerm;26708;50.304;19.028;2023-05-24T08:18:38;59.20;48.07;68.76;;
77133;Laerm;26708;50.304;19.028;2023-05-24T08:20:45;57.78;46.72;68.99;;
77133;Laerm;26708;50.304;19.028;2023-05-24T08:22:50;57.96;46.80;73.75;;
77133;Laerm;26708;50.304;19.028;2023-05-24T08:24:54;55.51;46.03;67.28;;
77133;Laerm;26708;50.304;19.028;2023-05-24T08:27:00;59.58;46.71;72.53;;
77133;Laerm;26708;50.304;19.028;2023-05-24T08:29:04;56.05;46.70;67.89;;
77133;Laerm;26708;50.304;19.028;2023-05-24T08:31:09;58.34;46.68;75.00;;
77133;Laerm;26708;50.304;19.028;2023-05-24T08:33:14;60.23;46.43;71.87;;
77133;Laerm;26708;50.304;19.028;2023-05-24T08:35:19;58.43;47.22;72.98;;
77133;Laerm;26708;50.304;19.028;2023-05-24T08:37:26;57.08;47.17;67.71;;
77133;Laerm;26708;50.304;19.028;2023-05-24T08:39:33;57.13;48.38;67.20;;
77133;Laerm;26708;50.304;19.028;2023-05-24T08:41:37;56.78;47.32;66.41;;
77133;Laerm;26708;50.304;19.028;2023-05-24T08:43:42;58.72;46.93;69.72;;
77133;Laerm;26708;50.304;19.028;2023-05-24T08:45:49;57.24;45.43;68.29;;
77133;Laerm;26708;50.304;19.028;2023-05-24T08:47:56;55.50;45.43;67.92;;
77133;Laerm;26708;50.304;19.028;2023-05-24T08:50:02;58.77;48.09;69.38;;
77133;Laerm;26708;50.304;19.028;2023-05-24T08:52:09;55.81;47.41;70.91;;
77133;Laerm;26708;50.304;19.028;2023-05-24T08:54:21;57.87;47.81;70.51;;
77133;Laerm;26708;50.304;19.028;2023-05-24T08:56:27;56.32;46.02;68.95;;
77133;Laerm;26708;50.304;19.028;2023-05-24T08:58:32;56.90;47.84;66.40;;
77133;Laerm;26708;50.304;19.028;2023-05-24T09:00:37;56.58;46.47;69.72;;
77133;Laerm;26708;50.304;19.028;2023-05-24T09:02:44;56.94;47.16;69.67;;
77133;Laerm;26708;50.304;19.028;2023-05-24T09:04:54;60.34;48.74;70.32;;
77133;Laerm;26708;50.304;19.028;2023-05-24T09:07:01;56.38;45.33;69.85;;
77133;Laerm;26708;50.304;19.028;2023-05-24T09:09:09;57.48;46.13;69.17;;
77133;Laerm;26708;50.304;19.028;2023-05-24T09:11:18;56.15;45.99;67.17;;
77133;Laerm;26708;50.304;19.028;2023-05-24T09:13:27;57.57;46.39;69.20;;
77133;Laerm;26708;50.304;19.028;2023-05-24T09:15:32;58.83;47.16;71.44;;
77133;Laerm;26708;50.304;19.028;2023-05-24T09:17:37;54.56;46.35;65.10;;
77133;Laerm;26708;50.304;19.028;2023-05-24T09:19:45;58.64;46.54;70.73;;
77133;Laerm;26708;50.304;19.028;2023-05-24T09:21:50;58.65;46.42;69.36;;
77133;Laerm;26708;50.304;19.028;2023-05-24T09:23:55;55.21;45.94;69.57;;
77133;Laerm;26708;50.304;19.028;2023-05-24T09:26:06;54.67;45.24;67.63;;
77133;Laerm;26708;50.304;19.028;2023-05-24T09:28:17;57.27;47.12;67.59;;
77133;Laerm;26708;50.304;19.028;2023-05-24T09:30:23;57.20;45.99;68.33;;
77133;Laerm;26708;50.304;19.028;2023-05-24T09:32:27;56.34;44.91;69.41;;
77133;Laerm;26708;50.304;19.028;2023-05-24T09:34:37;55.26;46.35;73.34;;
77133;Laerm;26708;50.304;19.028;2023-05-24T09:36:45;61.01;46.22;75.67;;
77133;Laerm;26708;50.304;19.028;2023-05-24T09:39:06;57.65;46.42;68.12;;
77133;Laerm;26708;50.304;19.028;2023-05-24T09:41:11;58.89;46.01;68.80;;
77133;Laerm;26708;50.304;19.028;2023-05-24T09:43:19;61.85;45.75;81.05;;
77133;Laerm;26708;50.304;19.028;2023-05-24T09:45:24;56.20;45.59;67.79;;
77133;Laerm;26708;50.304;19.028;2023-05-24T09:47:29;57.99;46.43;67.98;;
77133;Laerm;26708;50.304;19.028;2023-05-24T09:49:36;56.07;45.82;69.60;;
77133;Laerm;26708;50.304;19.028;2023-05-24T09:51:40;58.01;46.88;72.27;;
77133;Laerm;26708;50.304;19.028;2023-05-24T09:53:45;57.86;47.17;67.00;;
77133;Laerm;26708;50.304;19.028;2023-05-24T09:55:54;59.12;47.71;70.94;;
77133;Laerm;26708;50.304;19.028;2023-05-24T09:58:05;58.44;47.52;80.23;;
77133;Laerm;26708;50.304;19.028;2023-05-24T10:00:14;58.57;47.58;71.84;;
77133;Laerm;26708;50.304;19.028;2023-05-24T10:02:24;60.73;48.43;71.86;;
77133;Laerm;26708;50.304;19.028;2023-05-24T10:04:32;56.67;47.46;75.22;;
77133;Laerm;26708;50.304;19.028;2023-05-24T10:06:39;61.38;48.70;74.04;;
77133;Laerm;26708;50.304;19.028;2023-05-24T10:08:46;57.68;47.48;68.52;;
77133;Laerm;26708;50.304;19.028;2023-05-24T10:10:54;60.89;48.53;76.06;;
77133;Laerm;26708;50.304;19.028;2023-05-24T10:13:01;56.37;48.04;67.20;;
77133;Laerm;26708;50.304;19.028;2023-05-24T10:15:12;57.91;46.61;71.51;;
77133;Laerm;26708;50.304;19.028;2023-05-24T10:17:16;59.26;46.98;70.60;;
77133;Laerm;26708;50.304;19.028;2023-05-24T10:19:21;60.90;44.48;75.82;;
77133;Laerm;26708;50.304;19.028;2023-05-24T10:21:30;58.91;48.16;69.30;;
77133;Laerm;26708;50.304;19.028;2023-05-24T10:23:38;56.77;47.12;66.39;;
77133;Laerm;26708;50.304;19.028;2023-05-24T10:25:55;56.42;46.46;66.61;;
77133;Laerm;26708;50.304;19.028;2023-05-24T10:28:11;61.50;46.05;78.47;;
77133;Laerm;26708;50.304;19.028;2023-05-24T10:30:30;60.17;48.79;71.90;;
77133;Laerm;26708;50.304;19.028;2023-05-24T10:32:39;57.62;45.99;73.88;;
77133;Laerm;26708;50.304;19.028;2023-05-24T10:34:49;58.19;46.05;73.85;;
77133;Laerm;26708;50.304;19.028;2023-05-24T10:36:54;62.39;46.75;78.27;;
77133;Laerm;26708;50.304;19.028;2023-05-24T10:38:59;58.87;45.75;71.60;;
77133;Laerm;26708;50.304;19.028;2023-05-24T10:41:06;68.04;46.72;86.27;;
77133;Laerm;26708;50.304;19.028;2023-05-24T10:43:10;56.32;45.81;65.95;;
77133;Laerm;26708;50.304;19.028;2023-05-24T10:45:37;57.88;44.85;69.16;;
77133;Laerm;26708;50.304;19.028;2023-05-24T10:47:43;56.89;45.45;73.42;;
77133;Laerm;26708;50.304;19.028;2023-05-24T10:49:50;58.04;45.45;69.53;;
77133;Laerm;26708;50.304;19.028;2023-05-24T10:52:01;60.05;47.01;69.77;;
77133;Laerm;26708;50.304;19.028;2023-05-24T10:54:15;60.39;47.19;74.78;;
77133;Laerm;26708;50.304;19.028;2023-05-24T10:56:21;59.15;47.67;72.75;;
77133;Laerm;26708;50.304;19.028;2023-05-24T10:58:58;58.73;46.63;71.04;;
77133;Laerm;26708;50.304;19.028;2023-05-24T11:01:32;60.02;47.27;73.42;;
77133;Laerm;26708;50.304;19.028;2023-05-24T11:03:40;56.23;46.59;66.89;;
77133;Laerm;26708;50.304;19.028;2023-05-24T11:05:51;57.75;46.60;71.81;;
77133;Laerm;26708;50.304;19.028;2023-05-24T11:07:58;56.12;46.18;69.45;;
77133;Laerm;26708;50.304;19.028;2023-05-24T11:10:10;66.13;46.38;82.94;;
77133;Laerm;26708;50.304;19.028;2023-05-24T11:12:18;58.30;48.08;68.44;;
77133;Laerm;26708;50.304;19.028;2023-05-24T11:14:28;57.43;46.80;69.35;;
77133;Laerm;26708;50.304;19.028;2023-05-24T11:16:37;56.67;46.82;66.35;;
77133;Laerm;26708;50.304;19.028;2023-05-24T11:18:54;57.78;45.46;70.52;;
77133;Laerm;26708;50.304;19.028;2023-05-24T11:21:00;58.03;46.98;68.27;;
77133;Laerm;26708;50.304;19.028;2023-05-24T11:23:05;55.03;45.79;66.30;;
77133;Laerm;26708;50.304;19.028;2023-05-24T11:25:11;56.20;46.02;69.85;;
77133;Laerm;26708;50.304;19.028;2023-05-24T11:27:18;58.20;46.69;70.49;;
77133;Laerm;26708;50.304;19.028;2023-05-24T11:29:23;56.20;46.30;67.26;;
77133;Laerm;26708;50.304;19.028;2023-05-24T11:31:27;56.76;46.89;69.10;;
77133;Laerm;26708;50.304;19.028;2023-05-24T11:33:40;57.03;45.56;70.38;;
77133;Laerm;26708;50.304;19.028;2023-05-24T11:35:46;56.53;46.17;71.26;;
77133;Laerm;26708;50.304;19.028;2023-05-24T11:37:50;54.65;45.86;67.37;;
77133;Laerm;26708;50.304;19.028;2023-05-24T11:39:56;56.18;45.54;67.44;;
77133;Laerm;26708;50.304;19.028;2023-05-24T11:42:04;56.15;46.02;66.03;;
77133;Laerm;26708;50.304;19.028;2023-05-24T11:44:11;57.29;45.82;71.71;;
77133;Laerm;26708;50.304;19.028;2023-05-24T11:46:20;57.56;46.24;71.19;;
77133;Laerm;26708;50.304;19.028;2023-05-24T11:48:25;53.89;45.66;68.40;;
77133;Laerm;26708;50.304;19.028;2023-05-24T11:50:38;57.75;44.76;68.58;;